Time;durP1;ratioP1;P1;durP2;ratioP2;P2;SDS_P1;SDS_P2;PMS_P1;PMS_P2;Temp;Humidity;BMP_temperature;BMP_pressure;BME280_temperature;BME280_humidity;BME280_pressure;Samples;Min_cycle;Max_cycle;Signal;HPM_P1;HPM_P2
2020/12/27 00:02:18;;;;;;;47.00;23.70;;;;;;;;;;5052819;28;20709;-79
2020/12/27 00:04:44;;;;;;;44.83;22.33;;;;;;;;;;5052628;28;20200;-79
2020/12/27 00:07:10;;;;;;;45.13;22.90;;;;;;;;;;5052190;28;20206;-79
2020/12/27 00:09:37;;;;;;;39.10;21.63;;;;;;;;;;5052561;28;20258;-79
2020/12/27 00:12:03;;;;;;;41.40;20.37;;;;;;;;;;5052355;28;20233;-79
2020/12/27 00:14:28;;;;;;;38.77;19.60;;;;;;;;;;5051900;28;20176;-79
2020/12/27 00:16:53;;;;;;;40.27;20.10;;;;;;;;;;5052236;28;20652;-80
2020/12/27 00:19:19;;;;;;;41.70;20.33;;;;;;;;;;5052209;28;20167;-79
2020/12/27 00:21:44;;;;;;;37.63;18.73;;;;;;;;;;5051274;28;20188;-79
2020/12/27 00:24:10;;;;;;;32.90;18.73;;;;;;;;;;5052935;28;20294;-80
2020/12/27 00:26:35;;;;;;;32.50;17.83;;;;;;;;;;5072241;28;20270;-80
2020/12/27 00:29:01;;;;;;;35.50;18.23;;;;;;;;;;5072381;28;20637;-79
2020/12/27 00:31:26;;;;;;;30.50;16.83;;;;;;;;;;5072495;28;20250;-79
2020/12/27 00:33:51;;;;;;;34.10;18.77;;;;;;;;;;5072390;28;20320;-81
2020/12/27 00:36:17;;;;;;;32.93;17.87;;;;;;;;;;5072643;28;20167;-79
2020/12/27 00:38:43;;;;;;;35.90;18.50;;;;;;;;;;5072672;28;20629;-79
2020/12/27 00:41:08;;;;;;;33.97;17.73;;;;;;;;;;5072058;28;20256;-79
2020/12/27 00:43:33;;;;;;;31.13;17.37;;;;;;;;;;5072339;28;20198;-79
2020/12/27 00:45:59;;;;;;;31.27;16.87;;;;;;;;;;5072327;28;20529;-79
2020/12/27 00:48:24;;;;;;;32.43;16.33;;;;;;;;;;5071937;28;20669;-80
2020/12/27 00:50:50;;;;;;;31.23;17.13;;;;;;;;;;5072489;28;20494;-79
2020/12/27 00:53:15;;;;;;;34.27;18.13;;;;;;;;;;5071905;28;20171;-79
2020/12/27 00:55:42;;;;;;;33.67;18.20;;;;;;;;;;5072729;28;20176;-79
2020/12/27 00:58:08;;;;;;;36.20;19.67;;;;;;;;;;5075022;28;20177;-80
2020/12/27 01:00:36;;;;;;;38.30;18.90;;;;;;;;;;5074458;28;20597;-79
2020/12/27 01:03:01;;;;;;;32.50;19.50;;;;;;;;;;5075369;28;20628;-79
2020/12/27 01:05:27;;;;;;;34.07;18.53;;;;;;;;;;5075646;28;20224;-80
2020/12/27 01:07:52;;;;;;;34.80;19.57;;;;;;;;;;5075317;28;20171;-80
2020/12/27 01:10:17;;;;;;;35.30;19.60;;;;;;;;;;5074118;28;20174;-80
2020/12/27 01:12:44;;;;;;;35.43;18.87;;;;;;;;;;5073518;28;20175;-80
2020/12/27 01:15:11;;;;;;;33.80;18.80;;;;;;;;;;5073745;28;20202;-80
2020/12/27 01:17:37;;;;;;;37.17;19.33;;;;;;;;;;5073450;28;20171;-80
2020/12/27 01:20:02;;;;;;;33.60;18.53;;;;;;;;;;5073453;28;20178;-80
2020/12/27 01:22:31;;;;;;;39.47;21.87;;;;;;;;;;5075038;28;20312;-80
2020/12/27 01:24:56;;;;;;;41.33;20.97;;;;;;;;;;5074819;28;20220;-80
2020/12/27 01:27:22;;;;;;;32.67;18.27;;;;;;;;;;5076115;28;20163;-79
2020/12/27 01:29:47;;;;;;;34.47;18.07;;;;;;;;;;5075158;28;20175;-80
2020/12/27 01:32:12;;;;;;;34.50;18.93;;;;;;;;;;5075130;28;20179;-79
2020/12/27 01:34:38;;;;;;;40.00;22.27;;;;;;;;;;5075384;28;20167;-79
2020/12/27 01:37:03;;;;;;;35.13;19.27;;;;;;;;;;5075070;28;20164;-79
2020/12/27 01:39:28;;;;;;;33.47;18.13;;;;;;;;;;5075005;28;20198;-80
2020/12/27 01:41:54;;;;;;;42.70;23.23;;;;;;;;;;5075236;28;20167;-79
2020/12/27 01:44:19;;;;;;;31.07;18.73;;;;;;;;;;5074788;28;20534;-79
2020/12/27 01:46:45;;;;;;;34.43;19.33;;;;;;;;;;5075251;28;20178;-79
2020/12/27 01:49:11;;;;;;;41.40;20.90;;;;;;;;;;5074832;28;20255;-79
2020/12/27 01:51:37;;;;;;;40.27;21.40;;;;;;;;;;5074746;28;20694;-79
2020/12/27 01:54:02;;;;;;;37.53;20.67;;;;;;;;;;5075340;28;20181;-79
2020/12/27 01:56:38;;;;;;;57.60;29.77;;;;;;;;;;5074699;28;20179;-82
2020/12/27 01:59:04;;;;;;;44.13;24.03;;;;;;;;;;5075012;28;20174;-79
2020/12/27 02:01:30;;;;;;;44.53;23.63;;;;;;;;;;5074419;28;20167;-80
2020/12/27 02:03:56;;;;;;;38.60;22.03;;;;;;;;;;5074798;28;20199;-79
2020/12/27 02:06:21;;;;;;;41.07;22.60;;;;;;;;;;5074739;28;20198;-79
2020/12/27 02:08:49;;;;;;;39.53;22.33;;;;;;;;;;5074071;28;20572;-80
2020/12/27 02:11:14;;;;;;;46.50;24.77;;;;;;;;;;5074435;28;20618;-79
2020/12/27 02:13:59;;;;;;;41.63;22.80;;;;;;;;;;5074716;28;20181;-79
2020/12/27 02:16:28;;;;;;;46.53;24.30;;;;;;;;;;5074493;28;20229;-79
2020/12/27 02:18:54;;;;;;;40.83;23.67;;;;;;;;;;5074240;28;20171;-80
2020/12/27 02:21:19;;;;;;;45.60;23.37;;;;;;;;;;5074237;28;20243;-79
2020/12/27 02:23:45;;;;;;;46.43;26.13;;;;;;;;;;5074132;28;20207;-79
2020/12/27 02:26:11;;;;;;;53.87;27.90;;;;;;;;;;5074452;28;20185;-79
2020/12/27 02:28:36;;;;;;;62.90;30.77;;;;;;;;;;5074355;28;20201;-80
2020/12/27 02:31:01;;;;;;;56.00;29.47;;;;;;;;;;5074341;28;20162;-81
2020/12/27 02:33:27;;;;;;;49.70;26.33;;;;;;;;;;5074406;28;20228;-79
2020/12/27 02:35:52;;;;;;;52.73;28.77;;;;;;;;;;5074259;28;20163;-79
2020/12/27 02:38:18;;;;;;;43.87;26.30;;;;;;;;;;5073854;28;20163;-80
2020/12/27 02:40:43;;;;;;;48.87;26.47;;;;;;;;;;5074144;28;20167;-79
2020/12/27 02:43:18;;;;;;;49.13;26.47;;;;;;;;;;5074006;28;20195;-79
2020/12/27 02:45:44;;;;;;;47.67;25.17;;;;;;;;;;5073747;28;20195;-79
2020/12/27 02:48:09;;;;;;;47.80;24.77;;;;;;;;;;5073900;28;20244;-80
2020/12/27 02:50:35;;;;;;;48.73;25.40;;;;;;;;;;5073693;28;20178;-80
2020/12/27 02:53:01;;;;;;;45.03;24.97;;;;;;;;;;5074151;28;20609;-79
2020/12/27 02:55:26;;;;;;;41.00;23.50;;;;;;;;;;5073574;28;20253;-79
2020/12/27 02:57:52;;;;;;;42.83;24.13;;;;;;;;;;5073490;28;20198;-79
2020/12/27 03:00:17;;;;;;;44.07;24.80;;;;;;;;;;5073729;28;20220;-79
2020/12/27 03:02:42;;;;;;;46.63;24.53;;;;;;;;;;5073409;28;20300;-79
2020/12/27 03:05:08;;;;;;;58.70;27.57;;;;;;;;;;5073584;28;20167;-80
2020/12/27 03:07:34;;;;;;;59.50;29.37;;;;;;;;;;5073611;28;20167;-80
2020/12/27 03:09:59;;;;;;;81.90;35.60;;;;;;;;;;5073627;28;20585;-79
2020/12/27 03:12:25;;;;;;;80.90;35.57;;;;;;;;;;5073162;28;20175;-79
2020/12/27 03:14:50;;;;;;;66.70;30.97;;;;;;;;;;5073380;28;20623;-79
2020/12/27 03:17:15;;;;;;;72.30;32.47;;;;;;;;;;5073404;28;20571;-79
2020/12/27 03:19:41;;;;;;;57.13;28.53;;;;;;;;;;5072185;28;20531;-79
2020/12/27 03:22:06;;;;;;;59.37;28.47;;;;;;;;;;5073054;28;20497;-79
2020/12/27 03:24:31;;;;;;;60.63;30.47;;;;;;;;;;5073462;28;20213;-79
2020/12/27 03:26:57;;;;;;;51.67;28.17;;;;;;;;;;5072962;28;20207;-79
2020/12/27 03:29:22;;;;;;;50.30;25.70;;;;;;;;;;5073182;28;20242;-79
2020/12/27 03:31:47;;;;;;;55.13;28.27;;;;;;;;;;5073096;28;20627;-79
2020/12/27 03:34:13;;;;;;;58.10;28.37;;;;;;;;;;5073097;28;20167;-79
2020/12/27 03:36:38;;;;;;;61.90;29.47;;;;;;;;;;5073119;28;20171;-79
2020/12/27 03:39:04;;;;;;;56.63;28.60;;;;;;;;;;5073018;28;20177;-79
2020/12/27 03:41:29;;;;;;;62.93;29.50;;;;;;;;;;5072957;28;20201;-79
2020/12/27 03:43:54;;;;;;;50.90;26.40;;;;;;;;;;5072661;28;20672;-79
2020/12/27 03:46:20;;;;;;;47.53;26.30;;;;;;;;;;5072923;28;20171;-79
2020/12/27 03:48:45;;;;;;;50.20;25.60;;;;;;;;;;5072894;28;20171;-79
2020/12/27 03:51:10;;;;;;;49.57;25.83;;;;;;;;;;5072575;28;20175;-79
2020/12/27 03:53:36;;;;;;;43.70;24.27;;;;;;;;;;5072762;28;20171;-79
2020/12/27 03:56:03;;;;;;;52.77;26.87;;;;;;;;;;5072779;28;20515;-79
2020/12/27 03:58:28;;;;;;;51.77;28.67;;;;;;;;;;5072730;28;20171;-79
2020/12/27 04:00:53;;;;;;;50.23;26.70;;;;;;;;;;5072774;28;20640;-80
2020/12/27 04:03:19;;;;;;;48.30;25.77;;;;;;;;;;5072706;28;20229;-79
2020/12/27 04:05:44;;;;;;;39.57;22.60;;;;;;;;;;5072837;28;20274;-80
2020/12/27 04:08:09;;;;;;;37.93;21.97;;;;;;;;;;5072366;28;20206;-81
2020/12/27 04:10:35;;;;;;;39.13;22.17;;;;;;;;;;5072545;28;20530;-79
2020/12/27 04:13:00;;;;;;;42.77;22.30;;;;;;;;;;5072635;28;20198;-79
2020/12/27 04:15:25;;;;;;;42.63;22.53;;;;;;;;;;5072243;28;20224;-80
2020/12/27 04:17:51;;;;;;;37.40;20.90;;;;;;;;;;5072602;28;20171;-80
2020/12/27 04:20:16;;;;;;;39.47;21.70;;;;;;;;;;5072271;28;20175;-80
2020/12/27 04:22:41;;;;;;;38.23;20.60;;;;;;;;;;5072214;28;20173;-80
2020/12/27 04:25:07;;;;;;;38.47;20.60;;;;;;;;;;5072463;28;20330;-79
2020/12/27 04:27:32;;;;;;;35.87;20.27;;;;;;;;;;5072182;28;20198;-79
2020/12/27 04:29:58;;;;;;;37.27;20.23;;;;;;;;;;5072523;28;20194;-80
2020/12/27 04:32:24;;;;;;;35.53;20.23;;;;;;;;;;5075891;28;20167;-79
2020/12/27 04:34:49;;;;;;;34.30;19.33;;;;;;;;;;5076336;28;20621;-79
2020/12/27 04:37:14;;;;;;;38.30;20.67;;;;;;;;;;5076345;28;20167;-79
2020/12/27 04:39:40;;;;;;;36.00;20.70;;;;;;;;;;5076581;28;20167;-79
2020/12/27 04:42:05;;;;;;;38.67;21.73;;;;;;;;;;5076440;28;20525;-80
2020/12/27 04:44:32;;;;;;;39.17;22.13;;;;;;;;;;5076309;28;20549;-80
2020/12/27 04:46:57;;;;;;;39.00;21.60;;;;;;;;;;5076331;28;20181;-80
2020/12/27 04:49:23;;;;;;;39.70;20.57;;;;;;;;;;5075965;28;20167;-79
2020/12/27 04:51:48;;;;;;;38.90;21.43;;;;;;;;;;5076282;28;20662;-79
2020/12/27 04:54:14;;;;;;;40.13;21.67;;;;;;;;;;5058245;28;20202;-80
2020/12/27 04:56:46;;;;;;;39.47;22.63;;;;;;;;;;5076223;28;20174;-80
2020/12/27 04:59:11;;;;;;;42.30;22.73;;;;;;;;;;5076427;28;20236;-80
2020/12/27 05:01:39;;;;;;;40.70;22.67;;;;;;;;;;5075581;28;20614;-79
2020/12/27 05:04:04;;;;;;;42.77;21.73;;;;;;;;;;5075928;28;20202;-79
2020/12/27 05:06:30;;;;;;;43.93;23.70;;;;;;;;;;5075544;28;20201;-79
2020/12/27 05:08:58;;;;;;;40.43;21.27;;;;;;;;;;5075617;28;20202;-79
2020/12/27 05:11:23;;;;;;;47.10;26.30;;;;;;;;;;5075610;28;20171;-79
2020/12/27 05:13:49;;;;;;;41.20;22.50;;;;;;;;;;5075546;28;20178;-79
2020/12/27 05:16:15;;;;;;;39.90;21.37;;;;;;;;;;5075905;28;20671;-80
2020/12/27 05:18:49;;;;;;;39.00;21.53;;;;;;;;;;5075717;28;20167;-79
2020/12/27 05:21:17;;;;;;;37.07;20.30;;;;;;;;;;5075694;28;20212;-79
2020/12/27 05:23:43;;;;;;;36.47;21.00;;;;;;;;;;5075589;28;20214;-79
2020/12/27 05:26:08;;;;;;;36.83;21.33;;;;;;;;;;5075286;28;20724;-79
2020/12/27 05:28:34;;;;;;;38.40;20.20;;;;;;;;;;5075311;28;20163;-79
2020/12/27 05:31:08;;;;;;;44.17;22.13;;;;;;;;;;5075193;28;20174;-79
2020/12/27 05:33:36;;;;;;;43.80;23.47;;;;;;;;;;5075190;28;20169;-79
2020/12/27 05:36:01;;;;;;;40.60;24.00;;;;;;;;;;5075187;28;20258;-79
2020/12/27 05:38:28;;;;;;;43.27;24.83;;;;;;;;;;5075331;28;20323;-79
2020/12/27 05:40:53;;;;;;;59.30;29.27;;;;;;;;;;5075025;28;20618;-79
2020/12/27 05:43:19;;;;;;;152.00;65.43;;;;;;;;;;5074046;28;20294;-79
2020/12/27 05:45:44;;;;;;;46.83;25.27;;;;;;;;;;5075217;28;20167;-79
2020/12/27 05:48:10;;;;;;;49.87;26.93;;;;;;;;;;5074936;28;20207;-79
2020/12/27 05:50:37;;;;;;;54.63;30.43;;;;;;;;;;5075065;28;20576;-79
2020/12/27 05:53:09;;;;;;;55.97;30.73;;;;;;;;;;5074829;28;20277;-80
2020/12/27 05:55:37;;;;;;;49.03;26.73;;;;;;;;;;5074836;28;20171;-80
2020/12/27 05:58:03;;;;;;;57.30;31.50;;;;;;;;;;5074941;28;20563;-79
2020/12/27 06:00:29;;;;;;;62.40;30.00;;;;;;;;;;5074874;28;20175;-80
2020/12/27 06:02:58;;;;;;;52.67;30.57;;;;;;;;;;5074490;28;20276;-80
2020/12/27 06:05:44;;;;;;;54.03;29.37;;;;;;;;;;5074807;28;20195;-80
2020/12/27 06:08:19;;;;;;;65.10;34.73;;;;;;;;;;5057217;28;20240;-80
2020/12/27 06:10:54;;;;;;;58.77;33.67;;;;;;;;;;5074755;28;20170;-80
2020/12/27 06:13:40;;;;;;;67.90;39.57;;;;;;;;;;5074760;28;20257;-80
2020/12/27 06:16:07;;;;;;;55.80;30.17;;;;;;;;;;5023336;28;20191;-80
2020/12/27 06:18:38;;;;;;;55.10;31.93;;;;;;;;;;5074971;28;20175;-80
2020/12/27 06:21:07;;;;;;;63.30;38.53;;;;;;;;;;5074284;28;20235;-80
2020/12/27 06:23:33;;;;;;;60.10;31.77;;;;;;;;;;5074339;28;20557;-80
2020/12/27 06:26:00;;;;;;;64.50;37.00;;;;;;;;;;5074540;28;20172;-79
2020/12/27 06:28:27;;;;;;;61.90;34.17;;;;;;;;;;5074167;28;20250;-80
2020/12/27 06:30:54;;;;;;;52.90;30.37;;;;;;;;;;5074190;28;20171;-80
2020/12/27 06:33:21;;;;;;;67.27;35.67;;;;;;;;;;5074321;28;20178;-79
2020/12/27 06:35:47;;;;;;;70.07;40.17;;;;;;;;;;5074780;28;20528;-79
2020/12/27 06:38:18;;;;;;;90.40;49.60;;;;;;;;;;5074184;28;20167;-79
2020/12/27 06:40:45;;;;;;;56.03;31.73;;;;;;;;;;5073986;28;20178;-79
2020/12/27 06:43:19;;;;;;;62.50;33.07;;;;;;;;;;5073981;28;20211;-79
2020/12/27 06:45:45;;;;;;;63.07;34.17;;;;;;;;;;5073774;28;20503;-79
2020/12/27 06:48:11;;;;;;;56.67;31.37;;;;;;;;;;5073753;28;20240;-80
2020/12/27 06:50:46;;;;;;;71.23;41.37;;;;;;;;;;5073942;28;20183;-80
2020/12/27 06:53:31;;;;;;;66.27;33.93;;;;;;;;;;5073628;28;20175;-80
2020/12/27 06:56:02;;;;;;;60.20;33.07;;;;;;;;;;5073477;28;20206;-80
2020/12/27 06:58:28;;;;;;;66.40;36.20;;;;;;;;;;5073628;28;20516;-80
2020/12/27 07:01:13;;;;;;;63.03;33.93;;;;;;;;;;5073728;28;20167;-82
2020/12/27 07:03:38;;;;;;;47.17;27.50;;;;;;;;;;5073139;28;20226;-80
2020/12/27 07:06:33;;;;;;;60.17;31.80;;;;;;;;;;5073608;28;20198;-80
2020/12/27 07:09:00;;;;;;;57.00;33.07;;;;;;;;;;5051836;28;20201;-79
2020/12/27 07:11:28;;;;;;;95.50;50.17;;;;;;;;;;5073796;28;20163;-81
2020/12/27 07:13:55;;;;;;;72.20;39.67;;;;;;;;;;5073770;28;20257;-80
2020/12/27 07:16:26;;;;;;;97.57;53.63;;;;;;;;;;5073459;28;20194;-80
2020/12/27 07:18:52;;;;;;;65.43;35.63;;;;;;;;;;5073571;28;20160;-80
2020/12/27 07:21:19;;;;;;;60.70;37.10;;;;;;;;;;5073428;28;20679;-80
2020/12/27 07:24:08;;;;;;;43.10;24.67;;;;;;;;;;5072987;28;20241;-79
2020/12/27 07:26:35;;;;;;;41.07;24.73;;;;;;;;;;5065174;28;20179;-79
2020/12/27 07:29:06;;;;;;;45.77;29.87;;;;;;;;;;5073007;28;20212;-80
2020/12/27 07:31:34;;;;;;;43.63;28.53;;;;;;;;;;5072941;28;20648;-80
2020/12/27 07:34:00;;;;;;;44.37;28.87;;;;;;;;;;5072904;28;20251;-80
2020/12/27 07:36:26;;;;;;;50.73;31.73;;;;;;;;;;5073363;28;20206;-79
2020/12/27 07:38:51;;;;;;;63.70;33.23;;;;;;;;;;5072982;28;20202;-80
2020/12/27 07:41:27;;;;;;;53.07;31.30;;;;;;;;;;5073083;28;20657;-79
2020/12/27 07:43:52;;;;;;;67.03;39.33;;;;;;;;;;5072844;28;20206;-79
2020/12/27 07:46:18;;;;;;;62.13;38.30;;;;;;;;;;5069481;28;20231;-79
2020/12/27 07:48:44;;;;;;;82.67;45.40;;;;;;;;;;5072821;28;20167;-79
2020/12/27 07:51:13;;;;;;;54.27;32.77;;;;;;;;;;5062880;28;20171;-80
2020/12/27 07:53:43;;;;;;;47.93;28.83;;;;;;;;;;5052532;28;20726;-80
2020/12/27 07:56:13;;;;;;;46.27;29.60;;;;;;;;;;5068106;28;20174;-80
2020/12/27 07:58:38;;;;;;;42.43;25.13;;;;;;;;;;5054844;28;20537;-79
2020/12/27 08:01:04;;;;;;;46.67;29.50;;;;;;;;;;5072403;28;20173;-80
2020/12/27 08:03:29;;;;;;;48.93;30.43;;;;;;;;;;5066956;28;20263;-81
2020/12/27 08:06:01;;;;;;;41.23;24.90;;;;;;;;;;5052003;28;20222;-79
2020/12/27 08:08:26;;;;;;;41.37;25.73;;;;;;;;;;5053174;28;20182;-80
2020/12/27 08:10:53;;;;;;;45.80;27.83;;;;;;;;;;5052063;28;20211;-80
2020/12/27 08:13:20;;;;;;;48.50;30.13;;;;;;;;;;5052823;28;20622;-80
2020/12/27 08:15:45;;;;;;;46.90;30.60;;;;;;;;;;5052251;28;20577;-80
2020/12/27 08:18:11;;;;;;;49.97;29.07;;;;;;;;;;5052339;28;20168;-80
2020/12/27 08:20:46;;;;;;;42.97;25.63;;;;;;;;;;5052231;28;20168;-80
2020/12/27 08:23:11;;;;;;;47.80;31.10;;;;;;;;;;5052174;28;20203;-80
2020/12/27 08:25:38;;;;;;;43.73;24.87;;;;;;;;;;5052055;28;20175;-80
2020/12/27 08:28:05;;;;;;;50.13;28.80;;;;;;;;;;5052491;28;20172;-80
2020/12/27 08:30:31;;;;;;;52.70;31.07;;;;;;;;;;5052518;28;20175;-79
2020/12/27 08:33:03;;;;;;;53.77;33.40;;;;;;;;;;5052264;28;20232;-80
2020/12/27 08:35:28;;;;;;;43.30;26.33;;;;;;;;;;5052438;28;20274;-80
2020/12/27 08:37:58;;;;;;;53.90;33.43;;;;;;;;;;5052025;28;20181;-80
2020/12/27 08:40:23;;;;;;;47.33;29.60;;;;;;;;;;5052055;28;20178;-80
2020/12/27 08:42:49;;;;;;;56.43;33.37;;;;;;;;;;5052153;28;20168;-80
2020/12/27 08:45:19;;;;;;;45.27;26.10;;;;;;;;;;5051950;28;20178;-80
2020/12/27 08:47:45;;;;;;;241.77;114.70;;;;;;;;;;5051887;28;20681;-80
2020/12/27 08:50:13;;;;;;;186.67;86.70;;;;;;;;;;5052125;28;20164;-80
2020/12/27 08:52:39;;;;;;;158.80;61.50;;;;;;;;;;5051884;28;20251;-80
2020/12/27 08:55:06;;;;;;;369.40;137.47;;;;;;;;;;5052086;28;20196;-81
2020/12/27 08:57:31;;;;;;;328.10;137.27;;;;;;;;;;5052396;28;20172;-80
2020/12/27 09:00:09;;;;;;;376.23;177.80;;;;;;;;;;5052034;28;20577;-80
2020/12/27 09:02:35;;;;;;;207.47;105.20;;;;;;;;;;5051797;28;20234;-80
2020/12/27 09:05:03;;;;;;;50.63;28.33;;;;;;;;;;5052171;28;20214;-80
2020/12/27 09:07:38;;;;;;;124.10;63.77;;;;;;;;;;5061321;28;20257;-80
2020/12/27 09:10:05;;;;;;;105.60;57.40;;;;;;;;;;5072049;28;20182;-80
2020/12/27 09:12:30;;;;;;;101.90;54.87;;;;;;;;;;5072288;28;20168;-80
2020/12/27 09:14:55;;;;;;;81.63;48.47;;;;;;;;;;5071664;28;20182;-80
2020/12/27 09:17:22;;;;;;;72.10;43.77;;;;;;;;;;5073193;28;20167;-80
2020/12/27 09:19:47;;;;;;;71.67;41.20;;;;;;;;;;5076103;28;20171;-80
2020/12/27 09:22:12;;;;;;;48.17;31.57;;;;;;;;;;5071702;28;20179;-80
2020/12/27 09:24:38;;;;;;;36.33;23.47;;;;;;;;;;5065646;28;20584;-80
2020/12/27 09:27:07;;;;;;;36.07;24.13;;;;;;;;;;5071846;28;20172;-80
2020/12/27 09:29:32;;;;;;;44.70;30.27;;;;;;;;;;5063992;28;20198;-80
2020/12/27 09:32:06;;;;;;;54.57;35.20;;;;;;;;;;5065353;28;20703;-80
2020/12/27 09:34:31;;;;;;;51.07;31.63;;;;;;;;;;5063104;28;20263;-80
2020/12/27 09:36:56;;;;;;;40.10;23.23;;;;;;;;;;5064338;28;20722;-80
2020/12/27 09:39:28;;;;;;;53.70;32.57;;;;;;;;;;5064009;28;20174;-81
2020/12/27 09:41:54;;;;;;;55.40;33.00;;;;;;;;;;5064765;28;20240;-80
2020/12/27 09:44:28;;;;;;;59.63;37.33;;;;;;;;;;5062964;28;20302;-80
2020/12/27 09:46:58;;;;;;;59.77;36.90;;;;;;;;;;5059638;28;20175;-80
2020/12/27 09:49:24;;;;;;;31.60;19.77;;;;;;;;;;5062758;28;20171;-80
2020/12/27 09:52:07;;;;;;;77.03;44.20;;;;;;;;;;5059389;28;20268;-81
2020/12/27 09:54:32;;;;;;;51.33;33.07;;;;;;;;;;5072569;28;20211;-81
2020/12/27 09:56:59;;;;;;;38.67;24.00;;;;;;;;;;5075759;28;20246;-79
2020/12/27 09:59:24;;;;;;;25.97;16.13;;;;;;;;;;5076013;28;20641;-80
2020/12/27 10:01:49;;;;;;;33.40;21.10;;;;;;;;;;5075594;28;20256;-80
2020/12/27 10:04:15;;;;;;;45.03;26.57;;;;;;;;;;5076382;28;20199;-80
2020/12/27 10:06:40;;;;;;;32.73;20.20;;;;;;;;;;5075347;28;20214;-81
2020/12/27 10:09:05;;;;;;;35.30;23.10;;;;;;;;;;5073120;28;20548;-81
2020/12/27 10:11:31;;;;;;;36.10;21.83;;;;;;;;;;5073240;28;20521;-80
2020/12/27 10:13:56;;;;;;;33.80;19.47;;;;;;;;;;5075611;28;20199;-80
2020/12/27 10:16:22;;;;;;;50.00;26.53;;;;;;;;;;5075638;28;20167;-80
2020/12/27 10:18:47;;;;;;;44.47;24.27;;;;;;;;;;5075516;28;20171;-80
2020/12/27 10:21:12;;;;;;;45.17;25.50;;;;;;;;;;5076035;28;20167;-80
2020/12/27 10:23:37;;;;;;;57.20;32.37;;;;;;;;;;5057264;28;20239;-79
2020/12/27 10:26:05;;;;;;;38.00;23.50;;;;;;;;;;5075880;28;20569;-79
2020/12/27 10:28:31;;;;;;;48.47;28.23;;;;;;;;;;5075398;28;20183;-80
2020/12/27 10:30:58;;;;;;;35.50;22.87;;;;;;;;;;5058139;28;20198;-80
2020/12/27 10:33:23;;;;;;;44.20;25.90;;;;;;;;;;5075847;28;20175;-80
2020/12/27 10:35:56;;;;;;;52.77;32.40;;;;;;;;;;5075292;28;20254;-80
2020/12/27 10:38:22;;;;;;;47.20;29.83;;;;;;;;;;5076078;28;20586;-80
2020/12/27 10:40:47;;;;;;;49.17;27.70;;;;;;;;;;5056345;28;20231;-80
2020/12/27 10:43:13;;;;;;;68.87;37.67;;;;;;;;;;5075550;28;20645;-80
2020/12/27 10:45:38;;;;;;;55.07;34.10;;;;;;;;;;5075084;28;20529;-80
2020/12/27 10:48:03;;;;;;;46.77;27.13;;;;;;;;;;5075244;28;20171;-80
2020/12/27 10:50:29;;;;;;;68.50;39.03;;;;;;;;;;5074903;28;20622;-80
2020/12/27 10:52:54;;;;;;;33.97;20.77;;;;;;;;;;5075063;28;20617;-80
2020/12/27 10:55:19;;;;;;;37.07;24.27;;;;;;;;;;5064060;28;20179;-80
2020/12/27 10:57:44;;;;;;;54.47;30.70;;;;;;;;;;5054815;28;20233;-80
2020/12/27 11:00:10;;;;;;;36.90;22.50;;;;;;;;;;5054045;28;20180;-80
2020/12/27 11:02:35;;;;;;;59.60;33.47;;;;;;;;;;5053437;28;20223;-80
2020/12/27 11:05:00;;;;;;;55.93;36.47;;;;;;;;;;5053460;28;20195;-79
2020/12/27 11:07:26;;;;;;;63.93;38.23;;;;;;;;;;5053239;28;20207;-80
2020/12/27 11:09:51;;;;;;;25.23;16.77;;;;;;;;;;5053332;28;20175;-80
2020/12/27 11:12:16;;;;;;;40.37;21.80;;;;;;;;;;5053599;28;20172;-80
2020/12/27 11:14:42;;;;;;;33.03;17.90;;;;;;;;;;5053541;28;20643;-80
2020/12/27 11:17:07;;;;;;;46.20;27.90;;;;;;;;;;5053445;28;20513;-83
2020/12/27 11:19:32;;;;;;;47.47;27.10;;;;;;;;;;5053228;28;20168;-79
2020/12/27 11:21:58;;;;;;;52.70;26.10;;;;;;;;;;5053037;28;20176;-80
2020/12/27 11:24:23;;;;;;;61.17;29.70;;;;;;;;;;5055304;28;20278;-80
2020/12/27 11:26:52;;;;;;;47.50;25.03;;;;;;;;;;5056074;28;20250;-79
2020/12/27 11:29:18;;;;;;;71.77;29.80;;;;;;;;;;5053031;28;20208;-80
2020/12/27 11:31:43;;;;;;;37.83;21.00;;;;;;;;;;5053545;28;20195;-80
2020/12/27 11:34:08;;;;;;;46.30;28.67;;;;;;;;;;5053271;28;20175;-81
2020/12/27 11:36:34;;;;;;;36.20;22.47;;;;;;;;;;5053360;28;20171;-79
2020/12/27 11:38:59;;;;;;;37.20;22.10;;;;;;;;;;5052832;28;20174;-80
2020/12/27 11:41:24;;;;;;;43.43;24.63;;;;;;;;;;5052053;28;20259;-80
2020/12/27 11:43:50;;;;;;;57.90;29.37;;;;;;;;;;5052521;28;20203;-80
2020/12/27 11:46:15;;;;;;;32.53;18.37;;;;;;;;;;5052281;28;20658;-80
2020/12/27 11:48:40;;;;;;;31.20;18.70;;;;;;;;;;5052261;28;20163;-80
2020/12/27 11:51:06;;;;;;;58.37;27.07;;;;;;;;;;5061488;28;20179;-81
2020/12/27 11:53:31;;;;;;;35.40;20.00;;;;;;;;;;5072445;28;20179;-81
2020/12/27 11:55:56;;;;;;;63.77;31.40;;;;;;;;;;5072307;28;20167;-80
2020/12/27 11:58:22;;;;;;;63.13;31.57;;;;;;;;;;5072598;28;20171;-81
2020/12/27 12:00:47;;;;;;;47.83;24.93;;;;;;;;;;5072170;28;20627;-81
2020/12/27 12:03:12;;;;;;;29.07;17.53;;;;;;;;;;5071679;28;20239;-81
2020/12/27 12:05:38;;;;;;;56.50;29.87;;;;;;;;;;5072313;28;20195;-80
2020/12/27 12:08:03;;;;;;;47.63;25.07;;;;;;;;;;5072332;28;20220;-80
2020/12/27 12:10:29;;;;;;;67.30;33.83;;;;;;;;;;5072390;28;20171;-81
2020/12/27 12:12:54;;;;;;;29.17;17.67;;;;;;;;;;5072388;28;20663;-79
2020/12/27 12:15:20;;;;;;;32.50;19.53;;;;;;;;;;5067910;28;20192;-78
2020/12/27 12:17:45;;;;;;;37.97;22.20;;;;;;;;;;5065698;28;20532;-78
2020/12/27 12:20:42;;;;;;;36.10;19.37;;;;;;;;;;5090895;28;20173;-78
2020/12/27 12:22:56;;;;;;;37.10;21.23;;;;;;;;;;5093325;28;20733;-78
2020/12/27 12:25:21;;;;;;;22.17;14.53;;;;;;;;;;5094009;28;20162;-78
2020/12/27 12:27:46;;;;;;;39.20;23.37;;;;;;;;;;5093649;28;20167;-78
2020/12/27 12:30:12;;;;;;;25.63;15.60;;;;;;;;;;5093205;28;20598;-80
2020/12/27 12:32:37;;;;;;;28.50;17.70;;;;;;;;;;5093527;28;20168;-80
2020/12/27 12:35:02;;;;;;;55.60;26.00;;;;;;;;;;5076501;28;20597;-80
2020/12/27 12:37:28;;;;;;;51.80;25.03;;;;;;;;;;5080934;28;20179;-80
2020/12/27 12:39:53;;;;;;;41.47;20.00;;;;;;;;;;5073635;28;20258;-80
2020/12/27 12:42:18;;;;;;;34.10;21.00;;;;;;;;;;5071796;28;20175;-80
2020/12/27 12:44:44;;;;;;;28.47;18.10;;;;;;;;;;5073670;28;20195;-80
2020/12/27 12:47:09;;;;;;;33.10;19.20;;;;;;;;;;5073230;28;20613;-80
2020/12/27 12:49:34;;;;;;;42.43;23.97;;;;;;;;;;5073804;28;20638;-80
2020/12/27 12:52:00;;;;;;;67.80;34.00;;;;;;;;;;5074444;28;20167;-80
2020/12/27 12:54:25;;;;;;;70.80;32.40;;;;;;;;;;5074794;28;20175;-80
2020/12/27 12:56:50;;;;;;;34.67;19.67;;;;;;;;;;5054391;28;20179;-80
2020/12/27 12:59:16;;;;;;;34.40;19.20;;;;;;;;;;5076954;28;20181;-81
2020/12/27 13:01:41;;;;;;;43.07;24.07;;;;;;;;;;5076847;28;20208;-81
2020/12/27 13:04:06;;;;;;;55.27;30.57;;;;;;;;;;5077611;28;20241;-81
2020/12/27 13:06:32;;;;;;;28.63;19.10;;;;;;;;;;5077074;28;20183;-80
2020/12/27 13:08:57;;;;;;;34.43;17.87;;;;;;;;;;5077125;28;20167;-80
2020/12/27 13:11:22;;;;;;;54.90;27.63;;;;;;;;;;5077173;28;20172;-80
2020/12/27 13:13:48;;;;;;;46.17;20.33;;;;;;;;;;5068626;28;20180;-79
2020/12/27 13:16:13;;;;;;;24.87;15.10;;;;;;;;;;5057059;28;20172;-79
2020/12/27 13:18:38;;;;;;;43.73;25.73;;;;;;;;;;5057024;28;20621;-79
2020/12/27 13:21:04;;;;;;;27.03;14.20;;;;;;;;;;5056661;28;20168;-79
2020/12/27 13:23:30;;;;;;;30.53;17.90;;;;;;;;;;5057043;28;20199;-80
2020/12/27 13:25:56;;;;;;;46.67;22.10;;;;;;;;;;5056971;28;20180;-80
2020/12/27 13:28:21;;;;;;;45.03;24.17;;;;;;;;;;5056791;28;20176;-79
2020/12/27 13:30:46;;;;;;;49.53;29.37;;;;;;;;;;5072571;28;20174;-79
2020/12/27 13:33:12;;;;;;;46.43;24.77;;;;;;;;;;5076255;28;20230;-80
2020/12/27 13:35:37;;;;;;;62.90;25.93;;;;;;;;;;5075412;28;20173;-81
2020/12/27 13:38:02;;;;;;;55.97;29.07;;;;;;;;;;5075728;28;20177;-80
2020/12/27 13:40:28;;;;;;;55.83;27.17;;;;;;;;;;5076192;28;20632;-80
2020/12/27 13:42:53;;;;;;;36.27;19.93;;;;;;;;;;5076452;28;20175;-80
2020/12/27 13:45:19;;;;;;;32.17;21.13;;;;;;;;;;5074415;28;20246;-80
2020/12/27 13:47:44;;;;;;;33.93;20.27;;;;;;;;;;5074874;28;20178;-80
2020/12/27 13:50:09;;;;;;;56.43;29.93;;;;;;;;;;5074871;28;20609;-80
2020/12/27 13:52:35;;;;;;;35.57;20.63;;;;;;;;;;5074492;28;20177;-81
2020/12/27 13:55:00;;;;;;;47.13;30.27;;;;;;;;;;5074314;28;20182;-80
2020/12/27 13:57:25;;;;;;;26.70;16.07;;;;;;;;;;5074244;28;20217;-78
2020/12/27 13:59:51;;;;;;;37.93;23.03;;;;;;;;;;5074101;28;20262;-78
2020/12/27 14:02:16;;;;;;;24.37;15.13;;;;;;;;;;5071394;28;20226;-77
2020/12/27 14:04:41;;;;;;;30.50;19.00;;;;;;;;;;5073011;28;20195;-79
2020/12/27 14:07:07;;;;;;;26.40;16.87;;;;;;;;;;5073245;28;20195;-77
2020/12/27 14:09:32;;;;;;;38.30;25.47;;;;;;;;;;5062895;28;20183;-77
2020/12/27 14:11:57;;;;;;;39.90;25.17;;;;;;;;;;5063263;28;20198;-78
2020/12/27 14:14:23;;;;;;;29.77;20.57;;;;;;;;;;5064289;28;20171;-77